sensor_id;sensor_type;location;lat;lon;timestamp;temperature;humidity
31379;DHT22;61664;48.112;11.662;2023-03-31T00:00:51;11.20;87.00
31379;DHT22;61664;48.112;11.662;2023-03-31T00:03:19;11.20;86.40
31379;DHT22;61664;48.112;11.662;2023-03-31T00:05:58;11.10;87.20
31379;DHT22;61664;48.112;11.662;2023-03-31T00:08:28;11.10;85.70
31379;DHT22;61664;48.112;11.662;2023-03-31T00:11:04;11.10;87.20
31379;DHT22;61664;48.112;11.662;2023-03-31T00:13:33;11.10;87.40
31379;DHT22;61664;48.112;11.662;2023-03-31T00:16:04;11.10;87.80
31379;DHT22;61664;48.112;11.662;2023-03-31T00:18:34;11.10;87.60
31379;DHT22;61664;48.112;11.662;2023-03-31T00:21:13;11.10;87.90
31379;DHT22;61664;48.112;11.662;2023-03-31T00:23:57;11.10;87.00
31379;DHT22;61664;48.112;11.662;2023-03-31T00:26:25;11.10;86.70
31379;DHT22;61664;48.112;11.662;2023-03-31T00:28:53;11.10;87.90
31379;DHT22;61664;48.112;11.662;2023-03-31T00:31:21;11.10;87.80
31379;DHT22;61664;48.112;11.662;2023-03-31T00:33:49;11.10;87.90
31379;DHT22;61664;48.112;11.662;2023-03-31T00:36:17;11.10;87.70
31379;DHT22;61664;48.112;11.662;2023-03-31T00:38:47;11.10;87.90
31379;DHT22;61664;48.112;11.662;2023-03-31T00:41:15;11.10;87.80
31379;DHT22;61664;48.112;11.662;2023-03-31T00:47:13;11.10;83.90
31379;DHT22;61664;48.112;11.662;2023-03-31T00:49:52;11.10;84.20
31379;DHT22;61664;48.112;11.662;2023-03-31T00:52:25;11.10;87.70
31379;DHT22;61664;48.112;11.662;2023-03-31T00:55:00;11.10;87.70
31379;DHT22;61664;48.112;11.662;2023-03-31T00:57:36;11.20;87.60
31379;DHT22;61664;48.112;11.662;2023-03-31T01:00:09;11.10;87.50
31379;DHT22;61664;48.112;11.662;2023-03-31T01:02:42;11.20;87.60
31379;DHT22;61664;48.112;11.662;2023-03-31T01:05:19;11.20;87.90
31379;DHT22;61664;48.112;11.662;2023-03-31T01:07:50;11.20;88.20
31379;DHT22;61664;48.112;11.662;2023-03-31T01:10:20;11.20;88.30
31379;DHT22;61664;48.112;11.662;2023-03-31T01:12:52;11.20;88.30
31379;DHT22;61664;48.112;11.662;2023-03-31T01:15:21;11.20;87.60
31379;DHT22;61664;48.112;11.662;2023-03-31T01:17:49;11.20;88.40
31379;DHT22;61664;48.112;11.662;2023-03-31T01:20:36;11.20;88.40
31379;DHT22;61664;48.112;11.662;2023-03-31T01:36:10;11.30;86.60
31379;DHT22;61664;48.112;11.662;2023-03-31T01:44:48;11.30;85.60
31379;DHT22;61664;48.112;11.662;2023-03-31T01:47:29;11.30;86.40
31379;DHT22;61664;48.112;11.662;2023-03-31T01:50:14;11.30;87.30
31379;DHT22;61664;48.112;11.662;2023-03-31T01:53:21;11.30;86.20
31379;DHT22;61664;48.112;11.662;2023-03-31T02:02:17;11.30;88.00
31379;DHT22;61664;48.112;11.662;2023-03-31T02:04:51;11.20;85.10
31379;DHT22;61664;48.112;11.662;2023-03-31T02:07:31;11.20;87.70
31379;DHT22;61664;48.112;11.662;2023-03-31T02:10:04;11.30;87.50
31379;DHT22;61664;48.112;11.662;2023-03-31T02:12:35;11.20;87.90
31379;DHT22;61664;48.112;11.662;2023-03-31T02:15:09;11.30;88.20
31379;DHT22;61664;48.112;11.662;2023-03-31T02:17:42;11.30;87.30
31379;DHT22;61664;48.112;11.662;2023-03-31T02:20:14;11.30;88.30
31379;DHT22;61664;48.112;11.662;2023-03-31T02:22:48;11.30;87.90
31379;DHT22;61664;48.112;11.662;2023-03-31T02:25:22;11.30;87.40
31379;DHT22;61664;48.112;11.662;2023-03-31T02:27:56;11.40;87.40
31379;DHT22;61664;48.112;11.662;2023-03-31T02:33:48;11.40;87.30
31379;DHT22;61664;48.112;11.662;2023-03-31T02:36:15;11.40;88.20
31379;DHT22;61664;48.112;11.662;2023-03-31T02:39:13;11.40;88.20
31379;DHT22;61664;48.112;11.662;2023-03-31T02:41:45;11.40;83.10
31379;DHT22;61664;48.112;11.662;2023-03-31T02:44:12;11.50;88.20
31379;DHT22;61664;48.112;11.662;2023-03-31T02:46:40;11.40;88.30
31379;DHT22;61664;48.112;11.662;2023-03-31T02:49:08;11.50;88.30
31379;DHT22;61664;48.112;11.662;2023-03-31T02:51:54;11.50;88.20
31379;DHT22;61664;48.112;11.662;2023-03-31T03:06:48;11.60;87.10
31379;DHT22;61664;48.112;11.662;2023-03-31T03:09:56;11.60;84.40
31379;DHT22;61664;48.112;11.662;2023-03-31T03:15:34;11.50;84.00
31379;DHT22;61664;48.112;11.662;2023-03-31T03:18:06;11.50;87.40
31379;DHT22;61664;48.112;11.662;2023-03-31T03:20:33;11.50;88.20
31379;DHT22;61664;48.112;11.662;2023-03-31T03:23:01;11.50;88.30
31379;DHT22;61664;48.112;11.662;2023-03-31T03:25:28;11.50;88.30
31379;DHT22;61664;48.112;11.662;2023-03-31T03:27:55;11.50;88.30
31379;DHT22;61664;48.112;11.662;2023-03-31T03:30:22;11.60;88.40
31379;DHT22;61664;48.112;11.662;2023-03-31T03:32:49;11.60;88.30
31379;DHT22;61664;48.112;11.662;2023-03-31T03:35:16;11.60;88.30
31379;DHT22;61664;48.112;11.662;2023-03-31T03:37:43;11.60;88.10
31379;DHT22;61664;48.112;11.662;2023-03-31T03:40:11;11.60;87.80
31379;DHT22;61664;48.112;11.662;2023-03-31T03:42:38;11.60;87.60
31379;DHT22;61664;48.112;11.662;2023-03-31T03:45:05;11.60;87.40
31379;DHT22;61664;48.112;11.662;2023-03-31T03:47:33;11.60;87.30
31379;DHT22;61664;48.112;11.662;2023-03-31T03:50:00;11.50;87.00
31379;DHT22;61664;48.112;11.662;2023-03-31T03:52:28;11.60;86.90
31379;DHT22;61664;48.112;11.662;2023-03-31T03:54:55;11.50;86.80
31379;DHT22;61664;48.112;11.662;2023-03-31T03:57:22;11.40;86.80
31379;DHT22;61664;48.112;11.662;2023-03-31T03:59:49;11.40;86.90
31379;DHT22;61664;48.112;11.662;2023-03-31T04:02:16;11.40;87.10
31379;DHT22;61664;48.112;11.662;2023-03-31T04:04:42;11.30;87.40
31379;DHT22;61664;48.112;11.662;2023-03-31T04:07:09;11.30;87.70
31379;DHT22;61664;48.112;11.662;2023-03-31T04:09:36;11.30;88.10
31379;DHT22;61664;48.112;11.662;2023-03-31T04:12:03;11.30;88.30
31379;DHT22;61664;48.112;11.662;2023-03-31T04:14:30;11.30;88.70
31379;DHT22;61664;48.112;11.662;2023-03-31T04:16:57;11.30;89.00
31379;DHT22;61664;48.112;11.662;2023-03-31T04:19:24;11.30;89.20
31379;DHT22;61664;48.112;11.662;2023-03-31T04:21:51;11.20;89.40
31379;DHT22;61664;48.112;11.662;2023-03-31T04:24:28;11.20;89.50
31379;DHT22;61664;48.112;11.662;2023-03-31T04:26:59;11.30;89.60
31379;DHT22;61664;48.112;11.662;2023-03-31T04:29:28;11.30;89.50
31379;DHT22;61664;48.112;11.662;2023-03-31T04:31:59;11.30;89.80
31379;DHT22;61664;48.112;11.662;2023-03-31T04:34:26;11.30;90.00
31379;DHT22;61664;48.112;11.662;2023-03-31T04:37:01;11.30;90.10
31379;DHT22;61664;48.112;11.662;2023-03-31T04:39:29;11.40;90.20
31379;DHT22;61664;48.112;11.662;2023-03-31T04:41:58;11.40;90.30
31379;DHT22;61664;48.112;11.662;2023-03-31T04:44:25;11.40;90.30
31379;DHT22;61664;48.112;11.662;2023-03-31T04:46:53;11.40;90.30
31379;DHT22;61664;48.112;11.662;2023-03-31T04:49:21;11.50;90.10
31379;DHT22;61664;48.112;11.662;2023-03-31T04:51:48;11.50;90.10
31379;DHT22;61664;48.112;11.662;2023-03-31T04:54:15;11.50;90.10
31379;DHT22;61664;48.112;11.662;2023-03-31T04:56:42;11.50;90.10
31379;DHT22;61664;48.112;11.662;2023-03-31T04:59:09;11.50;90.10
31379;DHT22;61664;48.112;11.662;2023-03-31T05:01:36;11.50;90.00
31379;DHT22;61664;48.112;11.662;2023-03-31T05:04:04;11.50;89.70
31379;DHT22;61664;48.112;11.662;2023-03-31T05:06:31;11.50;89.40
31379;DHT22;61664;48.112;11.662;2023-03-31T05:08:58;11.50;89.10
31379;DHT22;61664;48.112;11.662;2023-03-31T05:11:25;11.50;88.80
31379;DHT22;61664;48.112;11.662;2023-03-31T05:13:53;11.40;88.70
31379;DHT22;61664;48.112;11.662;2023-03-31T05:16:20;11.40;88.90
31379;DHT22;61664;48.112;11.662;2023-03-31T05:18:47;11.40;88.70
31379;DHT22;61664;48.112;11.662;2023-03-31T05:21:19;11.40;88.60
31379;DHT22;61664;48.112;11.662;2023-03-31T05:23:47;11.30;88.00
31379;DHT22;61664;48.112;11.662;2023-03-31T05:26:14;11.30;88.70
31379;DHT22;61664;48.112;11.662;2023-03-31T05:28:42;11.30;88.90
31379;DHT22;61664;48.112;11.662;2023-03-31T05:31:11;11.20;88.70
31379;DHT22;61664;48.112;11.662;2023-03-31T05:33:39;11.20;88.70
31379;DHT22;61664;48.112;11.662;2023-03-31T05:36:13;11.20;88.80
31379;DHT22;61664;48.112;11.662;2023-03-31T05:38:42;11.30;88.30
31379;DHT22;61664;48.112;11.662;2023-03-31T05:41:10;11.10;89.20
31379;DHT22;61664;48.112;11.662;2023-03-31T05:43:38;11.10;89.80
31379;DHT22;61664;48.112;11.662;2023-03-31T05:46:08;11.10;89.20
31379;DHT22;61664;48.112;11.662;2023-03-31T05:48:36;11.10;89.20
31379;DHT22;61664;48.112;11.662;2023-03-31T05:51:04;11.10;86.30
31379;DHT22;61664;48.112;11.662;2023-03-31T05:53:31;11.10;89.40
31379;DHT22;61664;48.112;11.662;2023-03-31T05:55:59;11.10;89.90
31379;DHT22;61664;48.112;11.662;2023-03-31T05:58:33;11.10;90.00
31379;DHT22;61664;48.112;11.662;2023-03-31T06:03:35;11.10;90.00
31379;DHT22;61664;48.112;11.662;2023-03-31T06:06:04;11.20;90.30
31379;DHT22;61664;48.112;11.662;2023-03-31T06:08:31;11.20;90.50
31379;DHT22;61664;48.112;11.662;2023-03-31T06:10:58;11.20;90.20
31379;DHT22;61664;48.112;11.662;2023-03-31T06:13:25;11.20;90.20
31379;DHT22;61664;48.112;11.662;2023-03-31T06:15:57;11.30;90.60
31379;DHT22;61664;48.112;11.662;2023-03-31T06:18:29;11.30;90.70
31379;DHT22;61664;48.112;11.662;2023-03-31T06:20:58;11.40;90.80
31379;DHT22;61664;48.112;11.662;2023-03-31T06:23:25;11.40;90.80
31379;DHT22;61664;48.112;11.662;2023-03-31T06:25:53;11.50;90.60
31379;DHT22;61664;48.112;11.662;2023-03-31T06:28:20;11.50;90.50
31379;DHT22;61664;48.112;11.662;2023-03-31T06:30:47;11.50;90.40
31379;DHT22;61664;48.112;11.662;2023-03-31T06:33:14;11.70;90.50
31379;DHT22;61664;48.112;11.662;2023-03-31T06:35:42;11.60;90.40
31379;DHT22;61664;48.112;11.662;2023-03-31T06:38:08;11.60;90.40
31379;DHT22;61664;48.112;11.662;2023-03-31T06:40:36;11.70;90.60
31379;DHT22;61664;48.112;11.662;2023-03-31T06:43:03;11.70;90.60
31379;DHT22;61664;48.112;11.662;2023-03-31T06:45:30;11.70;90.60
31379;DHT22;61664;48.112;11.662;2023-03-31T06:47:57;11.80;90.50
31379;DHT22;61664;48.112;11.662;2023-03-31T06:50:24;11.80;90.60
31379;DHT22;61664;48.112;11.662;2023-03-31T06:52:51;11.80;90.70
31379;DHT22;61664;48.112;11.662;2023-03-31T06:55:20;11.90;90.70
31379;DHT22;61664;48.112;11.662;2023-03-31T06:57:47;11.90;90.70
31379;DHT22;61664;48.112;11.662;2023-03-31T07:00:14;12.00;90.70
31379;DHT22;61664;48.112;11.662;2023-03-31T07:02:42;12.00;90.90
31379;DHT22;61664;48.112;11.662;2023-03-31T07:05:09;12.10;90.80
31379;DHT22;61664;48.112;11.662;2023-03-31T07:07:36;12.20;90.70
31379;DHT22;61664;48.112;11.662;2023-03-31T07:10:03;12.20;90.60
31379;DHT22;61664;48.112;11.662;2023-03-31T07:12:34;12.20;90.20
31379;DHT22;61664;48.112;11.662;2023-03-31T07:15:01;12.20;89.50
31379;DHT22;61664;48.112;11.662;2023-03-31T07:17:28;12.20;89.50
31379;DHT22;61664;48.112;11.662;2023-03-31T07:19:54;12.20;89.20
31379;DHT22;61664;48.112;11.662;2023-03-31T07:22:21;12.20;88.80
31379;DHT22;61664;48.112;11.662;2023-03-31T07:24:48;12.20;88.80
31379;DHT22;61664;48.112;11.662;2023-03-31T07:27:15;12.10;88.80
31379;DHT22;61664;48.112;11.662;2023-03-31T07:29:42;12.10;88.80
31379;DHT22;61664;48.112;11.662;2023-03-31T07:32:09;12.10;88.70
31379;DHT22;61664;48.112;11.662;2023-03-31T07:34:36;12.00;88.40
31379;DHT22;61664;48.112;11.662;2023-03-31T07:37:03;12.00;88.60
31379;DHT22;61664;48.112;11.662;2023-03-31T07:39:30;12.00;89.20
31379;DHT22;61664;48.112;11.662;2023-03-31T07:41:57;12.00;89.60
31379;DHT22;61664;48.112;11.662;2023-03-31T07:44:24;12.00;89.90
31379;DHT22;61664;48.112;11.662;2023-03-31T07:46:51;12.00;89.70
31379;DHT22;61664;48.112;11.662;2023-03-31T07:49:18;12.00;89.90
31379;DHT22;61664;48.112;11.662;2023-03-31T07:51:45;12.00;90.10
31379;DHT22;61664;48.112;11.662;2023-03-31T07:54:12;12.00;89.90
31379;DHT22;61664;48.112;11.662;2023-03-31T07:56:38;12.10;89.70
31379;DHT22;61664;48.112;11.662;2023-03-31T07:59:05;12.10;89.50
31379;DHT22;61664;48.112;11.662;2023-03-31T08:01:32;12.00;89.50
31379;DHT22;61664;48.112;11.662;2023-03-31T08:04:00;12.00;89.50
31379;DHT22;61664;48.112;11.662;2023-03-31T08:06:27;12.00;89.70
31379;DHT22;61664;48.112;11.662;2023-03-31T08:08:56;12.00;90.00
31379;DHT22;61664;48.112;11.662;2023-03-31T08:11:24;12.00;90.20
31379;DHT22;61664;48.112;11.662;2023-03-31T08:13:52;12.00;90.50
31379;DHT22;61664;48.112;11.662;2023-03-31T08:16:19;12.10;90.80
31379;DHT22;61664;48.112;11.662;2023-03-31T08:18:46;12.10;90.70
31379;DHT22;61664;48.112;11.662;2023-03-31T08:21:13;12.20;90.60
31379;DHT22;61664;48.112;11.662;2023-03-31T08:23:40;12.20;90.30
31379;DHT22;61664;48.112;11.662;2023-03-31T08:28:36;12.20;90.00
31379;DHT22;61664;48.112;11.662;2023-03-31T08:31:07;12.20;89.80
31379;DHT22;61664;48.112;11.662;2023-03-31T08:33:36;12.20;89.60
31379;DHT22;61664;48.112;11.662;2023-03-31T08:36:05;12.20;90.10
31379;DHT22;61664;48.112;11.662;2023-03-31T08:38:39;12.20;90.20
31379;DHT22;61664;48.112;11.662;2023-03-31T08:43:57;12.20;89.80
31379;DHT22;61664;48.112;11.662;2023-03-31T08:46:27;12.30;89.90
31379;DHT22;61664;48.112;11.662;2023-03-31T08:48:57;12.30;87.90
31379;DHT22;61664;48.112;11.662;2023-03-31T08:51:51;12.30;89.60
31379;DHT22;61664;48.112;11.662;2023-03-31T08:54:32;12.20;88.20
31379;DHT22;61664;48.112;11.662;2023-03-31T08:57:02;12.20;88.70
31379;DHT22;61664;48.112;11.662;2023-03-31T08:59:36;12.20;89.00
31379;DHT22;61664;48.112;11.662;2023-03-31T09:05:32;12.10;88.80
31379;DHT22;61664;48.112;11.662;2023-03-31T09:08:31;12.10;89.30
31379;DHT22;61664;48.112;11.662;2023-03-31T09:17:47;12.10;88.70
31379;DHT22;61664;48.112;11.662;2023-03-31T09:20:33;12.20;90.40
31379;DHT22;61664;48.112;11.662;2023-03-31T09:23:31;12.20;90.40
31379;DHT22;61664;48.112;11.662;2023-03-31T09:26:03;12.30;89.00
31379;DHT22;61664;48.112;11.662;2023-03-31T09:28:36;12.30;91.10
31379;DHT22;61664;48.112;11.662;2023-03-31T09:31:13;12.50;91.30
31379;DHT22;61664;48.112;11.662;2023-03-31T09:33:47;12.60;91.70
31379;DHT22;61664;48.112;11.662;2023-03-31T09:36:19;12.80;92.90
31379;DHT22;61664;48.112;11.662;2023-03-31T09:38:50;13.10;94.90
31379;DHT22;61664;48.112;11.662;2023-03-31T09:41:17;13.70;96.00
31379;DHT22;61664;48.112;11.662;2023-03-31T09:43:46;14.20;96.00
31379;DHT22;61664;48.112;11.662;2023-03-31T09:46:31;14.70;94.00
31379;DHT22;61664;48.112;11.662;2023-03-31T09:49:05;15.10;90.60
31379;DHT22;61664;48.112;11.662;2023-03-31T09:51:40;15.30;89.80
31379;DHT22;61664;48.112;11.662;2023-03-31T09:54:21;15.50;88.60
31379;DHT22;61664;48.112;11.662;2023-03-31T09:56:55;15.60;86.10
31379;DHT22;61664;48.112;11.662;2023-03-31T09:59:32;15.60;87.50
31379;DHT22;61664;48.112;11.662;2023-03-31T10:02:28;15.60;83.00
31379;DHT22;61664;48.112;11.662;2023-03-31T10:05:04;15.60;82.60
31379;DHT22;61664;48.112;11.662;2023-03-31T10:07:34;15.60;87.50
31379;DHT22;61664;48.112;11.662;2023-03-31T10:10:01;15.50;88.10
31379;DHT22;61664;48.112;11.662;2023-03-31T10:12:30;15.50;87.90
31379;DHT22;61664;48.112;11.662;2023-03-31T10:15:21;15.50;87.10
31379;DHT22;61664;48.112;11.662;2023-03-31T10:17:51;15.50;82.70
31379;DHT22;61664;48.112;11.662;2023-03-31T10:20:32;15.40;86.70
31379;DHT22;61664;48.112;11.662;2023-03-31T10:23:14;15.30;85.00
31379;DHT22;61664;48.112;11.662;2023-03-31T10:25:45;15.40;88.30
31379;DHT22;61664;48.112;11.662;2023-03-31T10:28:17;15.40;89.70
31379;DHT22;61664;48.112;11.662;2023-03-31T10:30:51;15.60;87.90
31379;DHT22;61664;48.112;11.662;2023-03-31T10:33:25;15.70;86.40
31379;DHT22;61664;48.112;11.662;2023-03-31T10:36:11;15.70;85.90
31379;DHT22;61664;48.112;11.662;2023-03-31T10:38:43;15.70;83.70
31379;DHT22;61664;48.112;11.662;2023-03-31T10:41:20;15.70;88.60
31379;DHT22;61664;48.112;11.662;2023-03-31T10:43:52;15.90;90.50
31379;DHT22;61664;48.112;11.662;2023-03-31T10:46:45;16.20;90.70
31379;DHT22;61664;48.112;11.662;2023-03-31T10:51:59;16.60;86.80
31379;DHT22;61664;48.112;11.662;2023-03-31T10:54:29;16.80;85.60
31379;DHT22;61664;48.112;11.662;2023-03-31T10:57:01;16.90;89.00
31379;DHT22;61664;48.112;11.662;2023-03-31T11:05:13;17.10;81.50
31379;DHT22;61664;48.112;11.662;2023-03-31T11:25:51;16.30;76.60
31379;DHT22;61664;48.112;11.662;2023-03-31T11:37:08;15.00;77.00
31379;DHT22;61664;48.112;11.662;2023-03-31T11:42:34;14.30;76.40
31379;DHT22;61664;48.112;11.662;2023-03-31T11:45:22;13.90;75.90
31379;DHT22;61664;48.112;11.662;2023-03-31T11:48:17;13.50;77.70
31379;DHT22;61664;48.112;11.662;2023-03-31T11:50:52;13.20;79.80
31379;DHT22;61664;48.112;11.662;2023-03-31T11:53:25;12.90;83.00
31379;DHT22;61664;48.112;11.662;2023-03-31T11:55:57;12.80;84.20
31379;DHT22;61664;48.112;11.662;2023-03-31T12:06:20;12.60;87.60
31379;DHT22;61664;48.112;11.662;2023-03-31T12:09:06;12.70;88.90
31379;DHT22;61664;48.112;11.662;2023-03-31T12:17:25;13.00;90.50
31379;DHT22;61664;48.112;11.662;2023-03-31T12:19:56;13.10;91.10
31379;DHT22;61664;48.112;11.662;2023-03-31T12:22:35;13.20;91.50
31379;DHT22;61664;48.112;11.662;2023-03-31T12:25:20;13.40;90.30
31379;DHT22;61664;48.112;11.662;2023-03-31T12:27:48;13.60;89.50
31379;DHT22;61664;48.112;11.662;2023-03-31T12:30:31;13.70;91.20
31379;DHT22;61664;48.112;11.662;2023-03-31T12:33:10;13.80;89.90
31379;DHT22;61664;48.112;11.662;2023-03-31T12:41:35;14.10;89.00
31379;DHT22;61664;48.112;11.662;2023-03-31T12:44:22;14.20;89.00
31379;DHT22;61664;48.112;11.662;2023-03-31T12:55:57;14.40;83.60
31379;DHT22;61664;48.112;11.662;2023-03-31T13:01:12;14.50;89.20
31379;DHT22;61664;48.112;11.662;2023-03-31T13:09:01;14.60;86.40
31379;DHT22;61664;48.112;11.662;2023-03-31T13:11:39;14.70;90.40
31379;DHT22;61664;48.112;11.662;2023-03-31T13:14:19;14.90;89.90
31379;DHT22;61664;48.112;11.662;2023-03-31T13:16:48;14.90;86.00
31379;DHT22;61664;48.112;11.662;2023-03-31T13:19:33;14.90;87.90
31379;DHT22;61664;48.112;11.662;2023-03-31T13:22:03;14.90;82.60
31379;DHT22;61664;48.112;11.662;2023-03-31T13:24:32;14.90;82.90
31379;DHT22;61664;48.112;11.662;2023-03-31T13:41:54;14.10;81.90
31379;DHT22;61664;48.112;11.662;2023-03-31T13:48:14;14.10;83.00
31379;DHT22;61664;48.112;11.662;2023-03-31T13:54:04;14.40;90.90
31379;DHT22;61664;48.112;11.662;2023-03-31T14:06:19;16.50;91.90
31379;DHT22;61664;48.112;11.662;2023-03-31T14:11:36;17.80;89.80
31379;DHT22;61664;48.112;11.662;2023-03-31T14:16:36;18.20;83.20
31379;DHT22;61664;48.112;11.662;2023-03-31T14:21:59;18.00;76.30
31379;DHT22;61664;48.112;11.662;2023-03-31T14:30:49;17.00;73.90
31379;DHT22;61664;48.112;11.662;2023-03-31T14:39:08;16.20;78.90
31379;DHT22;61664;48.112;11.662;2023-03-31T14:41:37;16.00;78.10
31379;DHT22;61664;48.112;11.662;2023-03-31T14:44:06;15.80;80.10
31379;DHT22;61664;48.112;11.662;2023-03-31T14:46:38;15.60;79.90
31379;DHT22;61664;48.112;11.662;2023-03-31T14:49:25;15.40;79.40
31379;DHT22;61664;48.112;11.662;2023-03-31T14:52:00;15.20;76.60
31379;DHT22;61664;48.112;11.662;2023-03-31T14:54:34;14.90;75.90
31379;DHT22;61664;48.112;11.662;2023-03-31T14:57:04;14.60;75.70
31379;DHT22;61664;48.112;11.662;2023-03-31T14:59:33;14.40;76.80
31379;DHT22;61664;48.112;11.662;2023-03-31T15:02:03;14.10;77.70
31379;DHT22;61664;48.112;11.662;2023-03-31T15:04:36;13.90;78.20
31379;DHT22;61664;48.112;11.662;2023-03-31T15:07:11;13.60;77.00
31379;DHT22;61664;48.112;11.662;2023-03-31T15:09:39;13.50;79.30
31379;DHT22;61664;48.112;11.662;2023-03-31T15:12:16;13.30;80.80
31379;DHT22;61664;48.112;11.662;2023-03-31T15:14:49;13.30;88.00
31379;DHT22;61664;48.112;11.662;2023-03-31T15:17:27;13.50;90.70
31379;DHT22;61664;48.112;11.662;2023-03-31T15:20:00;13.80;87.70
31379;DHT22;61664;48.112;11.662;2023-03-31T15:22:30;14.10;90.90
31379;DHT22;61664;48.112;11.662;2023-03-31T15:24:57;14.40;90.00
31379;DHT22;61664;48.112;11.662;2023-03-31T15:27:36;14.50;88.70
31379;DHT22;61664;48.112;11.662;2023-03-31T15:30:11;14.60;81.50
31379;DHT22;61664;48.112;11.662;2023-03-31T15:32:42;14.70;85.90
31379;DHT22;61664;48.112;11.662;2023-03-31T15:35:24;14.80;87.50
31379;DHT22;61664;48.112;11.662;2023-03-31T15:37:57;14.80;81.00
31379;DHT22;61664;48.112;11.662;2023-03-31T15:40:30;14.90;86.20
31379;DHT22;61664;48.112;11.662;2023-03-31T15:45:51;15.00;81.00
31379;DHT22;61664;48.112;11.662;2023-03-31T15:48:35;15.00;85.50
31379;DHT22;61664;48.112;11.662;2023-03-31T15:51:18;15.00;80.20
31379;DHT22;61664;48.112;11.662;2023-03-31T15:53:51;15.10;79.70
31379;DHT22;61664;48.112;11.662;2023-03-31T15:56:29;15.10;84.50
31379;DHT22;61664;48.112;11.662;2023-03-31T15:59:23;15.10;81.40
31379;DHT22;61664;48.112;11.662;2023-03-31T16:02:03;15.10;78.90
31379;DHT22;61664;48.112;11.662;2023-03-31T16:04:31;15.00;83.90
31379;DHT22;61664;48.112;11.662;2023-03-31T16:07:04;14.90;83.30
31379;DHT22;61664;48.112;11.662;2023-03-31T16:09:44;14.90;80.40
31379;DHT22;61664;48.112;11.662;2023-03-31T16:12:27;14.90;79.40
31379;DHT22;61664;48.112;11.662;2023-03-31T16:17:52;15.00;84.60
31379;DHT22;61664;48.112;11.662;2023-03-31T16:20:31;15.20;85.40
31379;DHT22;61664;48.112;11.662;2023-03-31T16:23:33;15.40;86.50
31379;DHT22;61664;48.112;11.662;2023-03-31T16:26:04;15.70;81.40
31379;DHT22;61664;48.112;11.662;2023-03-31T16:28:37;15.90;90.70
31379;DHT22;61664;48.112;11.662;2023-03-31T16:31:04;16.20;89.40
31379;DHT22;61664;48.112;11.662;2023-03-31T16:34:02;16.50;91.20
31379;DHT22;61664;48.112;11.662;2023-03-31T16:36:30;16.80;91.40
31379;DHT22;61664;48.112;11.662;2023-03-31T16:38:57;17.10;90.70
31379;DHT22;61664;48.112;11.662;2023-03-31T16:41:28;17.20;88.10
31379;DHT22;61664;48.112;11.662;2023-03-31T16:43:55;17.30;84.80
31379;DHT22;61664;48.112;11.662;2023-03-31T16:46:23;17.30;81.70
31379;DHT22;61664;48.112;11.662;2023-03-31T16:48:51;17.20;79.30
31379;DHT22;61664;48.112;11.662;2023-03-31T16:51:19;17.00;78.50
31379;DHT22;61664;48.112;11.662;2023-03-31T16:53:46;16.80;77.90
31379;DHT22;61664;48.112;11.662;2023-03-31T16:56:14;16.50;77.60
31379;DHT22;61664;48.112;11.662;2023-03-31T16:58:41;16.30;77.90
31379;DHT22;61664;48.112;11.662;2023-03-31T17:01:09;16.00;78.00
31379;DHT22;61664;48.112;11.662;2023-03-31T17:03:37;15.80;78.70
31379;DHT22;61664;48.112;11.662;2023-03-31T17:06:09;15.50;76.10
31379;DHT22;61664;48.112;11.662;2023-03-31T17:08:38;15.30;72.60
31379;DHT22;61664;48.112;11.662;2023-03-31T17:11:08;14.90;70.70
31379;DHT22;61664;48.112;11.662;2023-03-31T17:13:38;14.50;69.80
31379;DHT22;61664;48.112;11.662;2023-03-31T17:16:08;14.00;70.30
31379;DHT22;61664;48.112;11.662;2023-03-31T17:18:52;13.50;71.60
31379;DHT22;61664;48.112;11.662;2023-03-31T17:21:19;13.00;73.30
31379;DHT22;61664;48.112;11.662;2023-03-31T17:23:47;12.60;74.50
31379;DHT22;61664;48.112;11.662;2023-03-31T17:26:15;12.30;76.20
31379;DHT22;61664;48.112;11.662;2023-03-31T17:28:43;12.00;77.50
31379;DHT22;61664;48.112;11.662;2023-03-31T17:31:18;11.70;78.50
31379;DHT22;61664;48.112;11.662;2023-03-31T17:33:46;11.50;78.70
31379;DHT22;61664;48.112;11.662;2023-03-31T17:36:13;11.30;80.40
31379;DHT22;61664;48.112;11.662;2023-03-31T17:38:41;11.20;81.50
31379;DHT22;61664;48.112;11.662;2023-03-31T17:41:10;11.00;82.10
31379;DHT22;61664;48.112;11.662;2023-03-31T17:43:39;10.90;82.70
31379;DHT22;61664;48.112;11.662;2023-03-31T17:46:10;10.80;83.40
31379;DHT22;61664;48.112;11.662;2023-03-31T17:48:39;10.80;83.90
31379;DHT22;61664;48.112;11.662;2023-03-31T17:51:14;10.70;84.50
31379;DHT22;61664;48.112;11.662;2023-03-31T17:53:44;10.70;84.90
31379;DHT22;61664;48.112;11.662;2023-03-31T17:56:13;10.60;85.20
31379;DHT22;61664;48.112;11.662;2023-03-31T17:58:41;10.60;85.60
31379;DHT22;61664;48.112;11.662;2023-03-31T18:01:12;10.50;85.90
31379;DHT22;61664;48.112;11.662;2023-03-31T18:03:42;10.50;85.40
31379;DHT22;61664;48.112;11.662;2023-03-31T18:06:12;10.50;86.70
31379;DHT22;61664;48.112;11.662;2023-03-31T18:08:41;10.50;86.80
31379;DHT22;61664;48.112;11.662;2023-03-31T18:11:09;10.50;87.10
31379;DHT22;61664;48.112;11.662;2023-03-31T18:13:37;10.50;87.40
31379;DHT22;61664;48.112;11.662;2023-03-31T18:16:05;10.40;87.60
31379;DHT22;61664;48.112;11.662;2023-03-31T18:18:36;10.50;88.00
31379;DHT22;61664;48.112;11.662;2023-03-31T18:21:05;10.50;87.90
31379;DHT22;61664;48.112;11.662;2023-03-31T18:23:34;10.50;88.10
31379;DHT22;61664;48.112;11.662;2023-03-31T18:26:06;10.60;88.30
31379;DHT22;61664;48.112;11.662;2023-03-31T18:28:37;10.60;87.20
31379;DHT22;61664;48.112;11.662;2023-03-31T18:31:07;10.60;88.10
31379;DHT22;61664;48.112;11.662;2023-03-31T18:33:34;10.60;88.00
31379;DHT22;61664;48.112;11.662;2023-03-31T18:36:03;10.70;87.80
31379;DHT22;61664;48.112;11.662;2023-03-31T18:38:33;10.70;87.60
31379;DHT22;61664;48.112;11.662;2023-03-31T18:41:02;10.70;87.50
31379;DHT22;61664;48.112;11.662;2023-03-31T18:43:30;10.70;87.50
31379;DHT22;61664;48.112;11.662;2023-03-31T18:45:59;10.70;87.10
31379;DHT22;61664;48.112;11.662;2023-03-31T18:48:26;10.70;87.10
31379;DHT22;61664;48.112;11.662;2023-03-31T18:50:53;10.70;87.00
31379;DHT22;61664;48.112;11.662;2023-03-31T18:53:21;10.70;86.80
31379;DHT22;61664;48.112;11.662;2023-03-31T18:55:50;10.70;86.60
31379;DHT22;61664;48.112;11.662;2023-03-31T18:58:18;10.70;86.80
31379;DHT22;61664;48.112;11.662;2023-03-31T19:00:45;10.70;86.70